Time;durP1;ratioP1;P1;durP2;ratioP2;P2;SDS_P1;SDS_P2;PMS_P1;PMS_P2;Temp;Humidity;BMP_temperature;BMP_pressure;BME280_temperature;BME280_humidity;BME280_pressure;Samples;Min_cycle;Max_cycle;Signal;HPM_P1;HPM_P2
2023/08/25 00:01:59;;;;;;;12.23;10.93;;;;;;;19.03;73.11;96381.41;5053058;28;20132;-70
2023/08/25 00:04:27;;;;;;;11.23;10.13;;;;;;;18.93;72.48;96386.56;5053035;28;20095;-70
2023/08/25 00:06:55;;;;;;;11.45;10.35;;;;;;;18.94;72.51;96384.75;5053071;28;20525;-70
2023/08/25 00:09:21;;;;;;;11.20;10.10;;;;;;;19.01;71.87;96393.94;5053084;28;20124;-70
2023/08/25 00:11:48;;;;;;;11.50;10.30;;;;;;;19.06;71.60;96399.72;5053019;28;20092;-70
2023/08/25 00:14:16;;;;;;;11.15;10.15;;;;;;;19.06;71.47;96390.94;5052994;28;20119;-69
2023/08/25 00:16:43;;;;;;;15.75;11.05;;;;;;;19.02;71.58;96400.91;5052912;28;20067;-70
2023/08/25 00:19:10;;;;;;;11.80;10.40;;;;;;;19.05;72.05;96416.59;5053136;28;20052;-70
2023/08/25 00:21:39;;;;;;;11.25;10.18;;;;;;;19.06;71.97;96417.47;5052909;28;20057;-70
2023/08/25 00:24:06;;;;;;;11.40;10.23;;;;;;;19.06;72.11;96417.47;5052785;28;20102;-69
2023/08/25 00:26:34;;;;;;;11.25;10.07;;;;;;;19.10;71.61;96413.63;5052860;28;20052;-69
2023/08/25 00:29:02;;;;;;;11.05;9.75;;;;;;;19.12;71.35;96410.88;5052956;28;20075;-70
2023/08/25 00:31:29;;;;;;;13.27;11.25;;;;;;;19.13;71.33;96413.41;5052789;28;20049;-70
2023/08/25 00:33:57;;;;;;;12.82;11.00;;;;;;;19.12;71.60;96413.53;5052731;28;20052;-69
2023/08/25 00:36:25;;;;;;;11.50;10.40;;;;;;;19.09;71.36;96411.09;5053507;28;20052;-70
2023/08/25 00:38:55;;;;;;;11.02;10.02;;;;;;;19.03;70.92;96401.78;5057035;28;20483;-70
2023/08/25 00:41:22;;;;;;;11.98;10.88;;;;;;;19.02;70.80;96400.09;5056694;28;20545;-70
2023/08/25 00:43:49;;;;;;;11.05;10.05;;;;;;;18.97;71.24;96407.53;5056754;28;20071;-70
2023/08/25 00:46:17;;;;;;;12.18;10.88;;;;;;;18.93;71.61;96414.84;5056945;28;20075;-70
2023/08/25 00:48:44;;;;;;;11.95;10.70;;;;;;;18.87;72.22;96410.84;5056760;28;20125;-69
2023/08/25 00:51:12;;;;;;;11.68;10.48;;;;;;;18.85;72.37;96415.44;5056526;28;20052;-69
2023/08/25 00:53:39;;;;;;;12.10;10.95;;;;;;;18.86;72.29;96421.56;5056802;28;20067;-69
2023/08/25 00:56:10;;;;;;;11.98;10.80;;;;;;;18.82;72.40;96416.50;5056565;28;20137;-69
2023/08/25 00:58:37;;;;;;;11.75;10.20;;;;;;;18.85;72.41;96423.38;5056611;28;20139;-70
2023/08/25 01:01:05;;;;;;;11.52;10.40;;;;;;;18.83;72.13;96417.34;5056314;28;20532;-69
2023/08/25 01:03:33;;;;;;;11.85;10.40;;;;;;;18.80;72.28;96418.44;5056335;28;20067;-69
2023/08/25 01:06:00;;;;;;;13.15;9.90;;;;;;;18.82;72.17;96413.84;5056444;28;20053;-70
2023/08/25 01:08:27;;;;;;;11.65;10.55;;;;;;;18.75;72.11;96403.84;5056225;28;20072;-69
2023/08/25 01:11:02;;;;;;;11.65;10.55;;;;;;;18.74;71.97;96410.94;5056381;28;20044;-70
2023/08/25 01:13:42;;;;;;;11.20;10.10;;;;;;;18.68;72.66;96406.06;5056169;28;20049;-69
2023/08/25 01:16:13;;;;;;;11.95;10.77;;;;;;;18.67;72.68;96409.69;5056146;28;20419;-69
2023/08/25 01:18:43;;;;;;;13.70;12.18;;;;;;;18.55;73.30;96417.56;5056118;28;20045;-70
2023/08/25 01:21:13;;;;;;;12.07;10.98;;;;;;;18.58;73.52;96419.16;5055914;28;20091;-69
2023/08/25 01:23:48;;;;;;;12.32;11.18;;;;;;;18.53;73.47;96414.19;5056016;28;20515;-69
2023/08/25 01:26:17;;;;;;;15.13;10.90;;;;;;;18.51;73.92;96410.78;5055950;28;20049;-69
2023/08/25 01:28:49;;;;;;;13.55;11.32;;;;;;;18.56;74.12;96411.31;5055801;28;20480;-70
2023/08/25 01:31:19;;;;;;;12.27;11.07;;;;;;;18.54;73.81;96412.34;5055755;28;20045;-69
2023/08/25 01:33:46;;;;;;;16.98;11.57;;;;;;;18.54;74.05;96407.06;5055751;28;20045;-69
2023/08/25 01:36:21;;;;;;;11.73;10.57;;;;;;;18.56;74.12;96418.41;5055776;28;20048;-69
2023/08/25 01:38:55;;;;;;;14.23;11.23;;;;;;;18.62;74.63;96415.31;5055688;28;20147;-69
2023/08/25 01:41:30;;;;;;;15.45;11.32;;;;;;;18.62;73.90;96409.16;5056013;28;20051;-69
2023/08/25 01:44:02;;;;;;;12.57;11.38;;;;;;;18.60;73.82;96414.56;5055739;28;20040;-70
2023/08/25 01:46:30;;;;;;;12.82;11.60;;;;;;;18.65;73.84;96411.59;5055541;28;20080;-69
2023/08/25 01:48:59;;;;;;;13.02;11.77;;;;;;;18.61;73.44;96408.34;5054928;28;20399;-70
2023/08/25 01:51:28;;;;;;;12.88;10.82;;;;;;;18.66;73.33;96414.13;5055614;28;20078;-69
2023/08/25 01:53:56;;;;;;;11.70;10.63;;;;;;;18.67;73.23;96414.97;5055485;28;20048;-69
2023/08/25 01:56:25;;;;;;;12.13;10.93;;;;;;;18.62;73.13;96425.91;5055635;28;20087;-69
2023/08/25 01:58:52;;;;;;;12.00;10.77;;;;;;;18.60;73.33;96425.16;5055305;28;20092;-69
2023/08/25 02:01:19;;;;;;;12.57;11.38;;;;;;;18.54;74.00;96418.50;5055279;28;20049;-69
2023/08/25 02:03:46;;;;;;;11.57;10.55;;;;;;;18.54;73.88;96420.31;5055238;28;20473;-69
2023/08/25 02:06:13;;;;;;;12.80;11.60;;;;;;;18.56;73.61;96411.31;5055024;28;20049;-70
2023/08/25 02:08:40;;;;;;;14.07;11.65;;;;;;;18.57;73.55;96420.09;5055095;28;20045;-69
2023/08/25 02:11:07;;;;;;;11.63;10.43;;;;;;;18.53;73.83;96416.84;5055392;28;20045;-69
2023/08/25 02:13:35;;;;;;;13.77;11.68;;;;;;;18.51;74.04;96415.25;5055088;28;20126;-69
2023/08/25 02:16:02;;;;;;;13.68;10.85;;;;;;;18.51;74.12;96423.22;5054964;28;20127;-69
2023/08/25 02:18:30;;;;;;;13.05;11.75;;;;;;;18.54;73.89;96417.66;5054789;28;20665;-69
2023/08/25 02:20:57;;;;;;;12.18;10.93;;;;;;;18.54;73.80;96420.31;5054962;28;20118;-69
2023/08/25 02:23:24;;;;;;;12.60;11.30;;;;;;;18.53;73.80;96418.63;5055166;28;20048;-69
2023/08/25 02:25:52;;;;;;;12.20;11.00;;;;;;;18.52;73.80;96417.81;5054803;28;20040;-69
2023/08/25 02:28:19;;;;;;;13.02;11.63;;;;;;;18.47;74.19;96427.88;5054807;28;20140;-69
2023/08/25 02:30:47;;;;;;;11.90;10.73;;;;;;;18.38;74.29;96424.06;5054716;28;20053;-69
2023/08/25 02:33:15;;;;;;;13.35;11.10;;;;;;;18.41;74.50;96429.16;5054709;28;20132;-70
2023/08/25 02:35:42;;;;;;;13.05;11.75;;;;;;;18.39;74.92;96417.81;5054641;28;20099;-70
2023/08/25 02:38:11;;;;;;;13.07;11.07;;;;;;;18.43;74.84;96416.63;5054427;28;20450;-69
2023/08/25 02:40:38;;;;;;;12.68;11.45;;;;;;;18.46;74.82;96420.03;5054473;28;20049;-69
2023/08/25 02:43:07;;;;;;;11.93;10.73;;;;;;;18.46;74.71;96426.19;5054502;28;20045;-69
2023/08/25 02:45:35;;;;;;;12.82;11.63;;;;;;;18.47;74.65;96427.88;5054481;28;20067;-69
2023/08/25 02:48:04;;;;;;;11.77;10.68;;;;;;;18.50;74.40;96422.34;5054403;28;20053;-69
2023/08/25 02:50:32;;;;;;;12.40;11.20;;;;;;;18.49;74.24;96425.09;5054340;28;20482;-69
2023/08/25 02:52:59;;;;;;;12.07;10.68;;;;;;;18.55;74.07;96422.84;5054377;28;20497;-69
2023/08/25 02:55:26;;;;;;;14.45;11.02;;;;;;;18.57;74.07;96430.69;5054174;28;20094;-69
2023/08/25 02:57:53;;;;;;;12.40;11.10;;;;;;;18.52;73.59;96424.88;5054096;28;20380;-69
2023/08/25 03:00:23;;;;;;;11.98;10.82;;;;;;;18.46;74.14;96423.53;5053136;28;20060;-69
2023/08/25 03:02:51;;;;;;;11.85;10.68;;;;;;;18.46;74.56;96430.63;5054085;28;20060;-69
2023/08/25 03:05:19;;;;;;;11.50;10.50;;;;;;;18.44;74.77;96431.59;5054039;28;20159;-69
2023/08/25 03:07:46;;;;;;;11.80;10.77;;;;;;;18.46;74.41;96435.91;5054026;28;20072;-69
2023/08/25 03:10:13;;;;;;;16.20;10.52;;;;;;;18.47;74.33;96434.94;5054047;28;20464;-69
2023/08/25 03:12:40;;;;;;;12.52;10.18;;;;;;;18.44;74.67;96426.28;5053912;28;20060;-69
2023/08/25 03:15:09;;;;;;;11.57;10.48;;;;;;;18.46;74.90;96430.63;5053807;28;20103;-69
2023/08/25 03:17:36;;;;;;;12.73;11.40;;;;;;;18.49;74.85;96425.09;5053737;28;20059;-69
2023/08/25 03:20:03;;;;;;;12.35;11.15;;;;;;;18.47;74.74;96419.06;5053538;28;20052;-69
2023/08/25 03:22:32;;;;;;;14.65;11.02;;;;;;;18.45;74.50;96427.13;5053879;28;20056;-69
2023/08/25 03:24:59;;;;;;;11.18;10.07;;;;;;;18.40;74.25;96430.13;5053699;28;20081;-70
2023/08/25 03:27:27;;;;;;;11.50;10.40;;;;;;;18.40;74.49;96429.25;5053667;28;20132;-69
2023/08/25 03:29:54;;;;;;;11.95;10.63;;;;;;;18.43;74.69;96421.94;5053607;28;20045;-69
2023/08/25 03:32:21;;;;;;;11.95;10.80;;;;;;;18.46;74.37;96418.25;5053430;28;20564;-69
2023/08/25 03:34:48;;;;;;;11.93;10.60;;;;;;;18.43;74.59;96418.47;5053522;28;20052;-69
2023/08/25 03:37:15;;;;;;;12.48;11.38;;;;;;;18.38;74.98;96409.97;5053525;28;20045;-69
2023/08/25 03:39:43;;;;;;;11.50;10.38;;;;;;;18.38;74.69;96417.94;5053321;28;20566;-69
2023/08/25 03:42:11;;;;;;;13.00;11.60;;;;;;;18.36;74.83;96411.91;5053428;28;20128;-69
2023/08/25 03:44:38;;;;;;;12.88;11.57;;;;;;;18.40;74.45;96405.44;5053241;28;20143;-69
2023/08/25 03:47:05;;;;;;;11.38;10.38;;;;;;;18.43;74.47;96416.63;5053294;28;20045;-70
2023/08/25 03:49:34;;;;;;;12.20;11.13;;;;;;;18.46;74.58;96418.25;5053376;28;20051;-69
2023/08/25 03:52:01;;;;;;;10.68;9.75;;;;;;;18.52;74.81;96423.09;5053212;28;20114;-69
2023/08/25 03:54:31;;;;;;;15.15;10.57;;;;;;;18.55;74.34;96422.03;5053216;28;20049;-70
2023/08/25 03:56:59;;;;;;;11.82;10.52;;;;;;;18.56;73.90;96416.63;5053207;28;20126;-69
2023/08/25 03:59:30;;;;;;;11.05;10.05;;;;;;;18.54;74.08;96421.16;5053105;28;20110;-69
2023/08/25 04:01:57;;;;;;;11.45;10.25;;;;;;;18.51;74.21;96421.38;5053118;28;20045;-69
2023/08/25 04:04:24;;;;;;;12.38;11.18;;;;;;;18.55;74.21;96422.03;5053289;28;20044;-69
2023/08/25 04:06:52;;;;;;;11.50;10.30;;;;;;;18.62;73.96;96431.22;5053202;28;20055;-70
2023/08/25 04:09:19;;;;;;;11.38;10.32;;;;;;;18.74;74.02;96436.56;5053077;28;20049;-69
2023/08/25 04:11:46;;;;;;;11.70;10.50;;;;;;;18.90;73.62;96436.31;5052722;28;20577;-69
2023/08/25 04:14:16;;;;;;;15.23;10.10;;;;;;;19.10;73.11;96437.50;5052912;28;20049;-69
2023/08/25 04:16:43;;;;;;;12.10;10.35;;;;;;;19.28;72.71;96424.66;5053019;28;20045;-69
2023/08/25 04:19:10;;;;;;;10.43;9.40;;;;;;;19.62;71.55;96433.69;5053010;28;20048;-69
2023/08/25 04:21:38;;;;;;;9.38;8.57;;;;;;;19.91;70.13;96441.19;5053034;28;20067;-69
2023/08/25 04:24:06;;;;;;;11.07;9.32;;;;;;;20.18;69.41;96448.00;5052831;28;20075;-69
2023/08/25 04:26:33;;;;;;;10.60;9.50;;;;;;;20.45;68.38;96452.09;5052959;28;20152;-70
2023/08/25 04:29:00;;;;;;;11.75;9.27;;;;;;;20.80;67.22;96455.53;5052944;28;20151;-70
2023/08/25 04:31:29;;;;;;;9.90;8.65;;;;;;;21.17;65.84;96460.53;5052792;28;20083;-70
2023/08/25 04:33:57;;;;;;;10.20;9.30;;;;;;;21.50;64.70;96463.16;5052875;28;20461;-70
2023/08/25 04:36:24;;;;;;;9.30;8.40;;;;;;;21.81;64.26;96468.56;5052960;28;20099;-70
2023/08/25 04:38:51;;;;;;;10.07;8.95;;;;;;;22.15;62.90;96462.16;5052690;28;20052;-70
2023/08/25 04:41:20;;;;;;;10.88;8.98;;;;;;;22.46;62.00;96470.13;5052714;28;20102;-70
2023/08/25 04:43:48;;;;;;;10.00;9.00;;;;;;;22.80;61.20;96470.81;5052737;28;20080;-70
2023/08/25 04:46:15;;;;;;;10.73;8.73;;;;;;;23.09;59.81;96462.84;5052671;28;20053;-70
2023/08/25 04:48:46;;;;;;;9.77;8.85;;;;;;;23.33;59.48;96461.59;5052629;28;20049;-70
2023/08/25 04:51:13;;;;;;;10.57;9.45;;;;;;;23.57;58.76;96467.53;5052651;28;20053;-70
2023/08/25 04:53:40;;;;;;;9.70;8.70;;;;;;;23.90;58.07;96467.19;5052570;28;20049;-70
2023/08/25 04:56:08;;;;;;;9.60;8.70;;;;;;;24.21;57.36;96458.97;5052603;28;20053;-70
2023/08/25 04:58:35;;;;;;;8.60;7.80;;;;;;;24.52;56.48;96469.38;5052401;28;20049;-70
2023/08/25 05:01:03;;;;;;;9.27;8.43;;;;;;;24.77;55.51;96471.50;5052768;28;20060;-69
2023/08/25 05:03:31;;;;;;;8.57;7.72;;;;;;;24.95;55.34;96476.94;5052487;28;20055;-69
2023/08/25 05:05:59;;;;;;;8.65;7.88;;;;;;;25.17;54.58;96470.31;5052395;28;20095;-69
2023/08/25 05:08:26;;;;;;;9.75;8.70;;;;;;;25.45;52.92;96472.88;5052426;28;20049;-69
2023/08/25 05:10:53;;;;;;;10.02;8.50;;;;;;;25.74;53.03;96479.00;5052499;28;20049;-70
2023/08/25 05:13:20;;;;;;;7.93;7.13;;;;;;;26.13;52.55;96475.09;5052424;28;20045;-70
2023/08/25 05:15:47;;;;;;;9.02;8.23;;;;;;;26.59;52.15;96482.03;5052370;28;20049;-70
2023/08/25 05:18:14;;;;;;;9.57;7.72;;;;;;;27.02;50.52;96491.94;5052443;28;20045;-70
2023/08/25 05:20:42;;;;;;;8.85;7.95;;;;;;;27.41;50.07;96490.47;5052204;28;20064;-70
2023/08/25 05:23:10;;;;;;;9.07;8.18;;;;;;;27.77;48.87;96492.03;5052629;28;20055;-70
2023/08/25 05:25:38;;;;;;;8.18;7.30;;;;;;;28.12;48.46;96495.38;5055965;28;20052;-70
2023/08/25 05:28:05;;;;;;;9.10;7.55;;;;;;;28.47;47.57;96474.47;5055942;28;20179;-69
2023/08/25 05:30:33;;;;;;;8.45;7.65;;;;;;;28.81;46.54;96482.41;5055962;28;20049;-70
2023/08/25 05:33:00;;;;;;;8.52;7.72;;;;;;;29.06;46.83;96487.66;5055861;28;20128;-70
2023/08/25 05:35:27;;;;;;;8.82;7.95;;;;;;;29.42;46.41;96494.34;5055863;28;20564;-70
2023/08/25 05:37:54;;;;;;;7.43;6.82;;;;;;;29.74;44.71;96490.59;5055625;28;20084;-70
2023/08/25 05:40:23;;;;;;;8.73;8.00;;;;;;;30.07;43.82;96499.41;5055509;28;20148;-70
2023/08/25 05:42:50;;;;;;;9.85;7.88;;;;;;;30.24;41.99;96495.53;5055682;28;20083;-70
2023/08/25 05:45:17;;;;;;;8.45;7.30;;;;;;;30.48;42.26;96498.16;5055765;28;20049;-70
2023/08/25 05:47:44;;;;;;;8.07;7.28;;;;;;;30.70;42.37;96493.66;5055471;28;20055;-70
2023/08/25 05:50:15;;;;;;;8.75;7.95;;;;;;;30.86;41.37;96499.94;5055668;28;20053;-70
2023/08/25 05:52:44;;;;;;;8.10;7.32;;;;;;;31.04;42.83;96512.19;5055539;28;20044;-70
2023/08/25 05:55:13;;;;;;;8.47;7.77;;;;;;;31.18;41.52;96511.28;5055511;28;20136;-69
2023/08/25 05:57:42;;;;;;;8.35;7.50;;;;;;;31.44;41.16;96507.25;5055429;28;20802;-70
2023/08/25 06:00:11;;;;;;;13.23;9.05;;;;;;;31.73;40.58;96515.41;5055290;28;20410;-70
2023/08/25 06:02:38;;;;;;;10.13;8.43;;;;;;;31.93;39.98;96518.31;5055251;28;20146;-70
2023/08/25 06:05:05;;;;;;;11.50;8.52;;;;;;;32.12;39.48;96514.09;5055176;28;20056;-69
2023/08/25 06:07:33;;;;;;;9.35;8.40;;;;;;;32.17;39.05;96510.81;5055078;28;20053;-70
2023/08/25 06:10:02;;;;;;;8.57;7.78;;;;;;;32.28;38.27;96512.97;5055137;28;20556;-70
2023/08/25 06:12:30;;;;;;;7.90;7.30;;;;;;;32.34;38.33;96513.19;5055117;28;20483;-69
2023/08/25 06:14:59;;;;;;;10.35;8.55;;;;;;;32.43;37.61;96514.72;5055042;28;20077;-70
2023/08/25 06:17:26;;;;;;;10.63;8.02;;;;;;;32.45;36.95;96512.66;5054936;28;20041;-70
2023/08/25 06:19:53;;;;;;;8.52;7.75;;;;;;;32.60;37.26;96504.44;5054857;28;20103;-69
2023/08/25 06:22:21;;;;;;;9.02;8.15;;;;;;;32.92;37.20;96501.25;5054940;28;20144;-70
2023/08/25 06:24:49;;;;;;;8.55;7.68;;;;;;;33.11;36.19;96507.00;5055231;28;20147;-69
2023/08/25 06:27:18;;;;;;;8.45;7.60;;;;;;;33.34;35.90;96503.06;5054875;28;20041;-69
2023/08/25 06:29:45;;;;;;;7.65;6.95;;;;;;;33.54;35.59;96511.25;5054730;28;20081;-69
2023/08/25 06:32:14;;;;;;;12.30;7.68;;;;;;;33.66;34.93;96506.09;5054874;28;20048;-69
2023/08/25 06:34:42;;;;;;;9.30;8.35;;;;;;;33.82;34.95;96498.56;5054445;28;20470;-69
2023/08/25 06:37:10;;;;;;;7.53;6.82;;;;;;;34.01;33.91;96500.47;5054600;28;20049;-69
2023/08/25 06:39:37;;;;;;;8.77;7.25;;;;;;;34.08;34.28;96502.34;5054424;28;20056;-69
2023/08/25 06:42:05;;;;;;;9.35;6.78;;;;;;;34.17;33.93;96501.13;5054616;28;20076;-69
2023/08/25 06:44:32;;;;;;;9.90;7.60;;;;;;;34.32;33.15;96498.16;5054560;28;20060;-69
2023/08/25 06:46:59;;;;;;;8.10;7.28;;;;;;;34.44;33.29;96494.78;5054448;28;20098;-69
2023/08/25 06:49:28;;;;;;;8.75;7.15;;;;;;;34.68;33.97;96509.59;5054576;28;20053;-69
2023/08/25 06:51:55;;;;;;;9.33;7.50;;;;;;;34.85;33.93;96503.69;5054462;28;20045;-69
2023/08/25 06:54:24;;;;;;;8.98;8.05;;;;;;;34.95;33.56;96508.66;5054548;28;20052;-69
2023/08/25 06:56:51;;;;;;;7.65;6.95;;;;;;;35.13;32.41;96506.06;5054224;28;20071;-69
2023/08/25 06:59:18;;;;;;;8.57;6.85;;;;;;;35.33;31.36;96518.72;5054191;28;20140;-69
2023/08/25 07:01:45;;;;;;;7.68;6.82;;;;;;;35.33;31.96;96512.47;5054433;28;20045;-69
2023/08/25 07:04:12;;;;;;;9.57;7.50;;;;;;;35.03;32.09;96505.69;5054241;28;20072;-69
2023/08/25 07:06:41;;;;;;;7.25;6.55;;;;;;;35.00;31.95;96498.00;5054091;28;20099;-69
2023/08/25 07:09:08;;;;;;;9.13;7.15;;;;;;;35.16;32.43;96486.59;5054293;28;20047;-69
2023/08/25 07:11:35;;;;;;;8.23;6.53;;;;;;;35.51;32.54;96484.53;5054009;28;20052;-69
2023/08/25 07:14:02;;;;;;;15.75;8.20;;;;;;;35.87;32.13;96496.66;5053886;28;20102;-69
2023/08/25 07:16:30;;;;;;;8.23;6.35;;;;;;;36.04;30.32;96491.50;5053846;28;20048;-69
2023/08/25 07:18:58;;;;;;;9.25;6.70;;;;;;;36.21;30.35;96490.13;5053818;28;20049;-69
2023/08/25 07:21:26;;;;;;;11.68;7.85;;;;;;;36.35;30.67;96493.53;5053538;28;20056;-69
2023/08/25 07:23:55;;;;;;;7.30;6.22;;;;;;;36.48;29.60;96487.94;5053732;28;20044;-69
2023/08/25 07:26:25;;;;;;;7.25;6.55;;;;;;;36.69;29.59;96491.28;5053855;28;20045;-69
2023/08/25 07:28:52;;;;;;;7.78;6.63;;;;;;;36.81;29.29;96487.81;5053699;28;20045;-69
2023/08/25 07:31:19;;;;;;;7.32;6.63;;;;;;;36.78;29.60;96483.66;5053659;28;20080;-69
2023/08/25 07:33:46;;;;;;;6.90;6.10;;;;;;;36.98;30.12;96485.28;5053526;28;20044;-69
2023/08/25 07:36:14;;;;;;;9.45;6.93;;;;;;;37.04;29.81;96481.66;5053474;28;20049;-69
2023/08/25 07:38:41;;;;;;;6.72;6.13;;;;;;;37.31;29.48;96486.75;5053499;28;20049;-69
2023/08/25 07:41:11;;;;;;;7.88;6.75;;;;;;;36.99;29.09;96487.78;5053397;28;20102;-70
2023/08/25 07:43:38;;;;;;;;;;;;;;;36.76;29.53;96496.66;5053788;28;20083;-69
2023/08/25 07:46:06;;;;;;;8.75;6.88;;;;;;;36.93;29.72;96488.72;5052774;28;19975;-69
2023/08/25 07:48:34;;;;;;;7.47;6.68;;;;;;;37.09;29.87;96483.69;5053276;28;20426;-69
2023/08/25 07:51:01;;;;;;;7.53;6.88;;;;;;;37.26;29.14;96489.38;5053382;28;20053;-69
2023/08/25 07:53:28;;;;;;;7.28;6.40;;;;;;;37.35;29.06;96479.78;5053297;28;20052;-69
2023/08/25 07:55:55;;;;;;;6.78;6.28;;;;;;;37.34;29.37;96483.56;5053129;28;20059;-69
2023/08/25 07:58:26;;;;;;;7.28;6.68;;;;;;;37.35;28.81;96481.69;5053083;28;20103;-70
2023/08/25 08:00:54;;;;;;;7.63;6.93;;;;;;;37.28;28.92;96481.78;5053172;28;20051;-69
2023/08/25 08:03:22;;;;;;;10.18;6.80;;;;;;;37.24;28.54;96486.88;5053099;28;20045;-69
2023/08/25 08:05:50;;;;;;;8.55;6.40;;;;;;;36.99;28.60;96478.78;5053325;28;20094;-69
2023/08/25 08:08:18;;;;;;;8.80;6.78;;;;;;;37.03;29.26;96472.66;5053066;28;20132;-69
2023/08/25 08:10:45;;;;;;;7.15;6.47;;;;;;;36.89;28.85;96476.59;5052914;28;20053;-69
2023/08/25 08:13:13;;;;;;;7.63;6.80;;;;;;;36.68;29.69;96465.09;5052913;28;20402;-69
2023/08/25 08:15:42;;;;;;;9.00;6.60;;;;;;;36.71;30.27;96467.41;5052844;28;20496;-69
2023/08/25 08:18:09;;;;;;;6.90;6.20;;;;;;;36.56;29.67;96478.63;5052937;28;20087;-68
2023/08/25 08:20:37;;;;;;;7.43;6.68;;;;;;;36.17;29.79;96467.91;5052709;28;20053;-69
2023/08/25 08:23:05;;;;;;;12.55;6.93;;;;;;;35.93;30.49;96467.72;5052938;28;20089;-69
2023/08/25 08:25:35;;;;;;;9.60;6.93;;;;;;;35.60;30.56;96474.25;5052984;28;20056;-68
2023/08/25 08:28:03;;;;;;;8.50;7.63;;;;;;;35.25;31.33;96467.38;5052927;28;20482;-69
2023/08/25 08:30:30;;;;;;;10.25;7.38;;;;;;;35.23;32.24;96466.75;5052678;28;20399;-69
2023/08/25 08:32:59;;;;;;;9.02;6.90;;;;;;;35.36;31.43;96468.56;5053110;28;20045;-69
2023/08/25 08:35:26;;;;;;;7.07;6.38;;;;;;;35.37;30.98;96462.91;5052795;28;20045;-69
2023/08/25 08:37:53;;;;;;;7.45;6.78;;;;;;;35.40;32.65;96464.34;5052817;28;20208;-69
2023/08/25 08:40:21;;;;;;;8.13;7.20;;;;;;;35.72;31.30;96469.78;5052781;28;20128;-69
2023/08/25 08:42:51;;;;;;;10.73;6.95;;;;;;;35.78;31.20;96470.78;5052695;28;20136;-69
2023/08/25 08:45:22;;;;;;;9.93;7.25;;;;;;;35.60;32.61;96460.66;5052831;28;20052;-69
2023/08/25 08:47:49;;;;;;;8.02;7.03;;;;;;;35.74;31.92;96456.81;5052645;28;20095;-69
2023/08/25 08:50:19;;;;;;;8.05;6.65;;;;;;;35.98;32.15;96443.41;5052603;28;20135;-69
2023/08/25 08:52:49;;;;;;;7.65;7.05;;;;;;;35.96;31.66;96452.88;5052669;28;20414;-69
2023/08/25 08:55:16;;;;;;;7.57;6.88;;;;;;;36.11;31.14;96460.69;5052636;28;20045;-69
2023/08/25 08:57:44;;;;;;;8.27;7.47;;;;;;;36.15;31.54;96456.44;5052521;28;20380;-69
2023/08/25 09:00:14;;;;;;;7.70;6.95;;;;;;;36.07;29.90;96460.28;5056223;28;20482;-69
2023/08/25 09:02:43;;;;;;;10.18;7.00;;;;;;;35.50;31.18;96458.41;5056437;28;20045;-69
2023/08/25 09:05:15;;;;;;;7.75;6.70;;;;;;;35.14;31.84;96453.41;5056467;28;20075;-68
2023/08/25 09:07:46;;;;;;;13.10;7.10;;;;;;;35.05;32.71;96457.41;5056300;28;20075;-69
2023/08/25 09:10:14;;;;;;;12.50;7.03;;;;;;;34.96;32.64;96464.97;5056384;28;20045;-68
2023/08/25 09:12:41;;;;;;;9.13;7.10;;;;;;;34.53;33.44;96461.78;5056209;28;20103;-69
2023/08/25 09:15:09;;;;;;;9.70;7.57;;;;;;;34.32;33.71;96456.63;5056128;28;20380;-69
2023/08/25 09:17:37;;;;;;;8.50;6.97;;;;;;;34.09;33.83;96461.44;5056172;28;20053;-69
2023/08/25 09:20:07;;;;;;;14.43;8.00;;;;;;;33.96;34.70;96458.75;5055978;28;20107;-69
2023/08/25 09:22:36;;;;;;;11.73;7.40;;;;;;;33.85;35.41;96457.50;5056289;28;20398;-69
2023/08/25 09:25:05;;;;;;;8.07;6.95;;;;;;;33.88;34.82;96451.66;5056047;28;20130;-68
2023/08/25 09:27:32;;;;;;;8.32;7.50;;;;;;;33.89;34.42;96446.00;5056001;28;20059;-69
2023/08/25 09:30:03;;;;;;;8.38;7.15;;;;;;;33.80;34.84;96450.00;5055888;28;20509;-68
2023/08/25 09:32:31;;;;;;;8.95;7.35;;;;;;;33.83;35.50;96440.63;5055835;28;20048;-68
2023/08/25 09:35:11;;;;;;;9.60;7.55;;;;;;;33.65;35.25;96451.03;5055830;28;20045;-69
2023/08/25 09:37:43;;;;;;;7.95;7.13;;;;;;;33.30;35.67;96455.75;5055834;28;20144;-68
2023/08/25 09:40:15;;;;;;;7.88;7.07;;;;;;;32.87;36.77;96447.69;5055752;28;20141;-68
2023/08/25 09:42:42;;;;;;;8.18;7.30;;;;;;;32.71;37.24;96442.69;5055786;28;20053;-68
2023/08/25 09:45:12;;;;;;;9.63;7.25;;;;;;;32.40;38.04;96444.78;5055797;28;20088;-68
2023/08/25 09:47:41;;;;;;;8.60;7.25;;;;;;;32.22;37.71;96434.47;5055542;28;20454;-68
2023/08/25 09:50:08;;;;;;;8.32;7.45;;;;;;;32.21;37.93;96435.53;5055474;28;20045;-68
2023/08/25 09:52:39;;;;;;;9.38;7.35;;;;;;;32.06;37.69;96427.53;5055495;28;20057;-68
2023/08/25 09:55:07;;;;;;;7.72;6.80;;;;;;;32.26;39.07;96425.78;5055446;28;20068;-68
2023/08/25 09:57:37;;;;;;;7.70;6.75;;;;;;;32.83;37.80;96410.44;5055605;28;20055;-68
2023/08/25 10:00:08;;;;;;;9.25;7.18;;;;;;;33.18;35.68;96417.59;5055330;28;20086;-68
2023/08/25 10:02:36;;;;;;;9.98;7.20;;;;;;;33.17;35.37;96407.81;5055387;28;20049;-68
2023/08/25 10:05:04;;;;;;;7.53;6.82;;;;;;;33.02;35.34;96406.09;5055170;28;20088;-68
2023/08/25 10:07:34;;;;;;;8.82;7.03;;;;;;;33.00;36.41;96400.91;5055228;28;20053;-68
2023/08/25 10:10:01;;;;;;;8.60;7.18;;;;;;;33.17;37.58;96399.69;5054514;28;20045;-68
2023/08/25 10:12:30;;;;;;;7.85;7.05;;;;;;;33.05;36.68;96396.75;5055124;28;20068;-68
2023/08/25 10:15:00;;;;;;;;;;;;;;;32.91;36.02;96399.41;5055446;28;20407;-68
2023/08/25 10:17:29;;;;;;;10.02;7.03;;;;;;;32.58;36.90;96402.84;5055026;28;20370;-69
2023/08/25 10:20:04;;;;;;;13.75;6.80;;;;;;;32.47;36.43;96393.41;5054647;28;20056;-68
2023/08/25 10:22:31;;;;;;;10.10;7.35;;;;;;;32.50;37.02;96388.44;5054917;28;20045;-68
2023/08/25 10:25:03;;;;;;;7.90;6.63;;;;;;;32.60;40.39;96389.94;5055095;28;20049;-68
2023/08/25 10:27:32;;;;;;;8.05;6.30;;;;;;;32.64;38.29;96394.75;5054841;28;20076;-68
2023/08/25 10:30:02;;;;;;;6.65;5.90;;;;;;;32.93;34.67;96389.22;5054853;28;20122;-68
2023/08/25 10:32:50;;;;;;;8.43;6.10;;;;;;;33.22;34.22;96387.19;5054667;28;20057;-68
2023/08/25 10:35:37;;;;;;;8.35;6.18;;;;;;;33.58;34.82;96386.97;5054794;28;20127;-68
2023/08/25 10:38:05;;;;;;;10.57;7.13;;;;;;;33.44;34.47;96378.03;5054638;28;20052;-68
2023/08/25 10:40:42;;;;;;;11.73;7.18;;;;;;;33.33;36.43;96376.78;5054582;28;20480;-68
2023/08/25 10:43:09;;;;;;;12.43;6.88;;;;;;;33.70;35.17;96381.78;5054601;28;20053;-68
2023/08/25 10:45:38;;;;;;;8.40;6.80;;;;;;;34.06;33.33;96379.63;5054492;28;20527;-68
2023/08/25 10:48:06;;;;;;;8.20;7.28;;;;;;;34.11;33.10;96377.13;5054497;28;20587;-68
2023/08/25 10:50:34;;;;;;;7.63;6.40;;;;;;;34.35;33.62;96363.94;5054316;28;20099;-68
2023/08/25 10:53:04;;;;;;;7.25;6.55;;;;;;;34.31;32.45;96374.38;5054315;28;20049;-68
2023/08/25 10:55:35;;;;;;;10.30;6.47;;;;;;;34.09;32.15;96363.78;5054370;28;20507;-68
2023/08/25 10:58:04;;;;;;;11.13;6.18;;;;;;;34.04;32.70;96359.00;5054228;28;20045;-68
2023/08/25 11:00:33;;;;;;;9.80;7.22;;;;;;;34.06;33.93;96350.66;5054264;28;20056;-68
2023/08/25 11:03:02;;;;;;;8.55;7.38;;;;;;;34.02;33.72;96358.41;5054193;28;20041;-69
2023/08/25 11:05:44;;;;;;;9.75;6.13;;;;;;;33.67;32.10;96355.13;5054159;28;20045;-69
2023/08/25 11:08:28;;;;;;;9.25;6.45;;;;;;;33.33;32.40;96355.94;5054014;28;20041;-68
2023/08/25 11:11:17;;;;;;;6.93;6.22;;;;;;;33.18;33.15;96353.44;5053917;28;20534;-68
2023/08/25 11:13:45;;;;;;;8.73;6.82;;;;;;;33.20;33.41;96347.81;5053955;28;20083;-68
2023/08/25 11:16:14;;;;;;;11.15;6.90;;;;;;;33.35;35.98;96344.91;5053910;28;20052;-68
2023/08/25 11:18:44;;;;;;;8.82;5.90;;;;;;;33.63;32.96;96350.13;5053823;28;20044;-68
2023/08/25 11:21:12;;;;;;;8.15;5.88;;;;;;;33.78;33.05;96349.91;5052726;28;20053;-68
2023/08/25 11:23:41;;;;;;;14.55;6.28;;;;;;;34.13;32.30;96346.06;5053778;28;20500;-68
2023/08/25 11:26:09;;;;;;;9.30;6.22;;;;;;;34.43;31.79;96352.84;5053667;28;20563;-68
2023/08/25 11:28:39;;;;;;;7.70;6.22;;;;;;;34.44;31.79;96346.38;5053705;28;20051;-68
2023/08/25 11:31:08;;;;;;;9.65;6.93;;;;;;;34.20;31.90;96340.63;5053570;28;20052;-68
2023/08/25 11:33:35;;;;;;;11.38;7.93;;;;;;;33.86;33.49;96337.97;5053436;28;20041;-68